createdAt,value
2017-11-24T00:01:07.538Z,50.20
2017-11-24T00:03:37.323Z,49.60
2017-11-24T00:06:06.312Z,48.60
2017-11-24T00:08:35.371Z,48.00
2017-11-24T00:11:03.996Z,47.60
2017-11-24T00:13:32.998Z,47.10
2017-11-24T00:16:01.594Z,46.90
2017-11-24T00:18:30.625Z,46.60
2017-11-24T00:21:00.349Z,46.40
2017-11-24T00:23:31.450Z,46.10
2017-11-24T00:26:00.138Z,45.90
2017-11-24T00:28:28.932Z,45.70
2017-11-24T00:30:57.904Z,45.30
2017-11-24T00:33:26.539Z,46.20
2017-11-24T00:35:55.189Z,47.70
2017-11-24T00:38:24.399Z,49.80
2017-11-24T00:40:54.815Z,49.80
2017-11-24T00:43:25.517Z,48.50
2017-11-24T00:45:55.683Z,47.80
2017-11-24T00:48:25.886Z,47.20
2017-11-24T00:50:55.496Z,46.70
2017-11-24T00:53:25.330Z,46.40
2017-11-24T00:55:55.421Z,45.90
2017-11-24T00:58:25.102Z,45.90
2017-11-24T01:00:54.412Z,45.60
2017-11-24T01:03:23.291Z,45.30
2017-11-24T01:05:51.799Z,45.10
2017-11-24T01:08:23.294Z,44.70
2017-11-24T01:10:52.743Z,45.10
2017-11-24T01:13:22.042Z,46.90
2017-11-24T01:15:51.448Z,48.20
2017-11-24T01:18:19.890Z,49.50
2017-11-24T01:20:48.356Z,48.40
2017-11-24T01:23:18.145Z,47.60
2017-11-24T01:25:47.443Z,47.10
2017-11-24T01:28:17.512Z,46.40
2017-11-24T01:30:46.181Z,46.30
2017-11-24T01:33:16.249Z,46.10
2017-11-24T01:35:44.537Z,46.50
2017-11-24T01:38:12.724Z,45.70
2017-11-24T01:40:41.061Z,45.40
2017-11-24T01:43:10.674Z,45.20
2017-11-24T01:45:40.904Z,45.00
2017-11-24T01:48:10.991Z,44.90
2017-11-24T01:50:39.776Z,46.50
2017-11-24T01:53:08.844Z,48.20
2017-11-24T01:55:43.257Z,49.90
2017-11-24T01:58:14.812Z,51.00
2017-11-24T02:00:47.853Z,51.60
2017-11-24T02:03:20.540Z,51.20
2017-11-24T02:05:49.494Z,50.00
2017-11-24T02:08:19.749Z,49.20
2017-11-24T02:10:52.150Z,48.10
2017-11-24T02:13:23.449Z,48.10
2017-11-24T02:15:53.458Z,47.30
2017-11-24T02:18:22.934Z,47.30
2017-11-24T02:20:52.078Z,47.00
2017-11-24T02:23:22.651Z,46.70
2017-11-24T02:25:51.279Z,46.50
2017-11-24T02:28:19.601Z,46.30
2017-11-24T02:30:47.894Z,46.00
2017-11-24T02:33:16.961Z,47.80
2017-11-24T02:35:45.287Z,47.80
2017-11-24T02:38:15.511Z,49.70
2017-11-24T02:40:45.965Z,50.60
2017-11-24T02:43:17.019Z,49.50
2017-11-24T02:45:48.288Z,48.60
2017-11-24T02:48:16.412Z,48.00
2017-11-24T02:50:45.272Z,47.50
2017-11-24T02:53:13.612Z,47.20
2017-11-24T02:55:41.754Z,47.50
2017-11-24T02:58:10.272Z,48.00
2017-11-24T03:00:39.715Z,47.90
2017-11-24T03:03:08.816Z,47.60
2017-11-24T03:05:37.361Z,47.30
2017-11-24T03:08:08.639Z,47.00
2017-11-24T03:10:37.104Z,46.60
2017-11-24T03:13:05.709Z,46.30
2017-11-24T03:15:35.757Z,45.60
2017-11-24T03:18:04.132Z,45.00
2017-11-24T03:20:32.809Z,44.70
2017-11-24T03:23:01.732Z,44.40
2017-11-24T03:25:30.901Z,44.20
2017-11-24T03:28:00.177Z,44.00
2017-11-24T03:30:29.262Z,45.50
2017-11-24T03:32:58.077Z,47.30
2017-11-24T03:35:26.559Z,48.40
2017-11-24T03:37:54.986Z,48.40
2017-11-24T03:40:24.431Z,47.40
2017-11-24T03:42:52.872Z,47.40
2017-11-24T03:45:21.238Z,46.90
2017-11-24T03:47:49.580Z,47.00
2017-11-24T03:50:17.986Z,47.80
2017-11-24T03:52:46.734Z,47.00
2017-11-24T03:55:15.430Z,47.10
2017-11-24T03:57:44.849Z,46.00
2017-11-24T04:00:13.814Z,46.70
2017-11-24T04:02:44.157Z,47.10
2017-11-24T04:05:12.387Z,46.80
2017-11-24T04:07:40.969Z,46.40
2017-11-24T04:10:09.411Z,46.20
2017-11-24T04:12:38.168Z,45.90
2017-11-24T04:15:07.338Z,45.70
2017-11-24T04:17:36.021Z,45.40
2017-11-24T04:20:04.913Z,45.20
2017-11-24T04:22:33.723Z,44.70
2017-11-24T04:25:03.036Z,44.20
2017-11-24T04:27:31.848Z,43.80
2017-11-24T04:30:01.191Z,43.40
2017-11-24T04:32:29.728Z,44.30
2017-11-24T04:34:58.512Z,46.00
2017-11-24T04:37:26.847Z,47.70
2017-11-24T04:39:55.039Z,47.90
2017-11-24T04:42:23.424Z,47.90
2017-11-24T04:44:52.770Z,46.70
2017-11-24T04:47:21.348Z,46.70
2017-11-24T04:49:49.664Z,46.30
2017-11-24T04:52:19.065Z,45.70
2017-11-24T04:54:47.338Z,45.20
2017-11-24T04:57:15.519Z,44.50
2017-11-24T04:59:43.795Z,44.00
2017-11-24T05:02:12.273Z,44.00
2017-11-24T05:04:42.304Z,43.30
2017-11-24T05:07:10.895Z,43.10
2017-11-24T05:09:39.276Z,43.30
2017-11-24T05:12:08.304Z,45.60
2017-11-24T05:14:37.380Z,46.60
2017-11-24T05:17:07.171Z,47.40
2017-11-24T05:19:35.950Z,47.40
2017-11-24T05:22:05.039Z,46.80
2017-11-24T05:24:33.962Z,46.40
2017-11-24T05:27:02.409Z,45.80
2017-11-24T05:29:31.744Z,45.10
2017-11-24T05:32:00.077Z,44.50
2017-11-24T05:34:28.124Z,43.80
2017-11-24T05:36:56.482Z,43.50
2017-11-24T05:39:25.393Z,43.10
2017-11-24T05:41:54.199Z,43.20
2017-11-24T05:44:24.376Z,42.80
2017-11-24T05:46:55.003Z,44.10
2017-11-24T05:49:26.612Z,44.10
2017-11-24T05:51:57.637Z,45.60
2017-11-24T05:54:27.437Z,47.10
2017-11-24T05:56:57.166Z,48.20
2017-11-24T05:59:26.340Z,49.00
2017-11-24T06:01:55.653Z,49.20
2017-11-24T06:04:24.601Z,48.50
2017-11-24T06:06:53.064Z,47.50
2017-11-24T06:09:21.840Z,46.60
2017-11-24T06:11:50.199Z,45.70
2017-11-24T06:14:19.166Z,45.10
2017-11-24T06:16:48.297Z,44.70
2017-11-24T06:19:17.177Z,44.50
2017-11-24T06:21:45.864Z,44.20
2017-11-24T06:24:14.759Z,44.00
2017-11-24T06:26:43.297Z,43.80
2017-11-24T06:29:13.232Z,43.70
2017-11-24T06:31:42.431Z,43.50
2017-11-24T06:34:12.532Z,44.80
2017-11-24T06:36:40.900Z,46.70
2017-11-24T06:39:12.128Z,47.80
2017-11-24T06:41:45.081Z,47.80
2017-11-24T06:44:15.070Z,46.10
2017-11-24T06:46:45.435Z,46.10
2017-11-24T06:49:15.774Z,45.30
2017-11-24T06:51:44.399Z,44.70
2017-11-24T06:54:12.735Z,44.30
2017-11-24T06:56:41.224Z,44.20
2017-11-24T06:59:11.269Z,43.70
2017-11-24T07:01:39.556Z,43.60
2017-11-24T07:04:07.837Z,43.50
2017-11-24T07:06:36.300Z,43.30
2017-11-24T07:09:04.715Z,43.70
2017-11-24T07:11:35.450Z,44.20
2017-11-24T07:14:05.995Z,45.80
2017-11-24T07:16:36.888Z,47.50
2017-11-24T07:19:07.676Z,47.50
2017-11-24T07:21:37.422Z,45.90
2017-11-24T07:24:06.036Z,45.90
2017-11-24T07:26:35.573Z,45.10
2017-11-24T07:29:04.360Z,44.40
2017-11-24T07:31:34.830Z,44.10
2017-11-24T07:34:07.122Z,43.60
2017-11-24T07:36:39.402Z,43.60
2017-11-24T07:39:11.360Z,43.40
2017-11-24T07:41:40.795Z,43.30
2017-11-24T07:44:11.965Z,43.00
2017-11-24T07:46:40.869Z,42.90
2017-11-24T07:49:09.982Z,43.80
2017-11-24T07:51:39.147Z,45.40
2017-11-24T07:54:08.104Z,46.90
2017-11-24T07:56:36.717Z,47.50
2017-11-24T07:59:05.845Z,46.70
2017-11-24T08:01:36.134Z,46.00
2017-11-24T08:04:06.766Z,45.30
2017-11-24T08:06:37.973Z,44.30
2017-11-24T08:09:07.671Z,44.20
2017-11-24T08:11:37.471Z,44.00
2017-11-24T08:14:06.893Z,43.80
2017-11-24T08:16:36.199Z,43.70
2017-11-24T08:19:04.806Z,43.50
2017-11-24T08:21:33.165Z,43.20
2017-11-24T08:24:01.705Z,43.10
2017-11-24T08:26:30.665Z,43.60
2017-11-24T08:28:59.163Z,45.10
2017-11-24T08:31:27.608Z,46.70
2017-11-24T08:33:57.026Z,47.60
2017-11-24T08:36:25.430Z,46.80
2017-11-24T08:38:53.734Z,46.10
2017-11-24T08:41:23.560Z,44.50
2017-11-24T08:43:53.392Z,44.40
2017-11-24T08:46:29.726Z,44.10
2017-11-24T08:49:03.208Z,43.80
2017-11-24T08:51:34.339Z,43.60
2017-11-24T08:54:05.278Z,43.40
2017-11-24T08:56:36.222Z,43.20
2017-11-24T08:59:07.546Z,43.10
2017-11-24T09:01:38.148Z,42.90
2017-11-24T09:04:09.015Z,43.20
2017-11-24T09:06:40.125Z,44.60
2017-11-24T09:09:11.892Z,46.30
2017-11-24T09:11:40.561Z,47.80
2017-11-24T09:14:09.502Z,49.30
2017-11-24T09:16:38.424Z,49.90
2017-11-24T09:19:08.654Z,48.30
2017-11-24T09:21:37.605Z,48.20
2017-11-24T09:24:06.403Z,47.60
2017-11-24T09:26:35.603Z,47.70
2017-11-24T09:29:03.961Z,46.70
2017-11-24T09:31:33.503Z,46.40
2017-11-24T09:34:03.308Z,46.20
2017-11-24T09:36:33.916Z,45.90
2017-11-24T09:39:04.709Z,45.80
2017-11-24T09:41:33.333Z,45.60
2017-11-24T09:44:03.326Z,45.40
2017-11-24T09:46:34.401Z,45.30
2017-11-24T09:49:04.623Z,45.40
2017-11-24T09:51:39.437Z,47.10
2017-11-24T09:54:08.524Z,49.20
2017-11-24T09:56:38.231Z,50.10
2017-11-24T09:59:08.225Z,48.90
2017-11-24T10:01:37.925Z,48.30
2017-11-24T10:04:10.224Z,47.80
2017-11-24T10:06:42.232Z,47.40
2017-11-24T10:09:13.932Z,47.10
2017-11-24T10:11:45.330Z,46.80
2017-11-24T10:14:14.593Z,46.60
2017-11-24T10:16:44.189Z,46.40
2017-11-24T10:19:14.192Z,46.20
2017-11-24T10:21:48.751Z,46.10
2017-11-24T10:24:21.327Z,45.90
2017-11-24T10:26:51.856Z,45.80
2017-11-24T10:29:24.190Z,47.40
2017-11-24T10:31:54.693Z,48.70
2017-11-24T10:34:24.227Z,50.30
2017-11-24T10:36:53.624Z,49.30
2017-11-24T10:39:25.726Z,48.60
2017-11-24T10:41:56.429Z,48.10
2017-11-24T10:44:24.614Z,47.60
2017-11-24T10:46:53.700Z,47.40
2017-11-24T10:49:24.502Z,47.10
2017-11-24T10:51:53.089Z,47.50
2017-11-24T10:54:21.522Z,46.70
2017-11-24T10:56:53.546Z,46.50
2017-11-24T10:59:24.945Z,46.40
2017-11-24T11:01:56.347Z,46.20
2017-11-24T11:04:27.538Z,46.10
2017-11-24T11:06:57.191Z,47.60
2017-11-24T11:09:26.145Z,48.80
2017-11-24T11:11:55.792Z,50.20
2017-11-24T11:14:25.427Z,50.00
2017-11-24T11:16:55.325Z,49.00
2017-11-24T11:19:25.625Z,48.10
2017-11-24T11:21:55.721Z,48.00
2017-11-24T11:24:27.220Z,47.60
2017-11-24T11:26:56.144Z,47.30
2017-11-24T11:29:27.174Z,47.00
2017-11-24T11:31:58.381Z,46.80
2017-11-24T11:34:28.875Z,46.60
2017-11-24T11:36:59.318Z,46.30
2017-11-24T11:39:29.218Z,46.30
2017-11-24T11:41:58.817Z,46.10
2017-11-24T11:44:28.464Z,47.30
2017-11-24T11:46:59.220Z,50.10
2017-11-24T11:49:29.022Z,50.10
2017-11-24T11:51:58.817Z,50.30
2017-11-24T11:54:29.916Z,48.70
2017-11-24T11:56:59.388Z,49.20
2017-11-24T11:59:29.894Z,48.10
2017-11-24T12:01:59.096Z,47.70
2017-11-24T12:04:29.526Z,47.10
2017-11-24T12:06:59.029Z,47.00
2017-11-24T12:09:27.937Z,46.80
2017-11-24T12:11:57.925Z,46.60
2017-11-24T12:14:29.241Z,46.30
2017-11-24T12:17:00.235Z,46.20
2017-11-24T12:19:29.264Z,46.10
2017-11-24T12:22:00.332Z,48.40
2017-11-24T12:24:29.830Z,48.30
2017-11-24T12:27:00.729Z,49.80
2017-11-24T12:29:36.293Z,51.10
2017-11-24T12:32:08.888Z,51.80
2017-11-24T12:34:41.095Z,52.80
2017-11-24T12:37:10.212Z,51.90
2017-11-24T12:39:39.987Z,50.80
2017-11-24T12:42:09.886Z,50.00
2017-11-24T12:44:39.787Z,49.20
2017-11-24T12:47:15.784Z,48.80
2017-11-24T12:49:51.593Z,48.30
2017-11-24T12:52:27.092Z,47.90
2017-11-24T12:55:02.990Z,47.60
2017-11-24T12:57:35.266Z,47.30
2017-11-24T13:00:08.207Z,47.00
2017-11-24T13:02:40.432Z,46.70
2017-11-24T13:05:13.349Z,46.60
2017-11-24T13:07:41.888Z,48.10
2017-11-24T13:10:11.435Z,49.60
2017-11-24T13:12:40.979Z,50.90
2017-11-24T13:15:10.587Z,50.80
2017-11-24T13:17:39.729Z,49.80
2017-11-24T13:20:08.618Z,49.10
2017-11-24T13:22:38.723Z,48.60
2017-11-24T13:25:08.824Z,48.10
2017-11-24T13:27:40.287Z,47.70
2017-11-24T13:30:12.612Z,47.10
2017-11-24T13:32:43.824Z,47.10
2017-11-24T13:35:15.312Z,46.90
2017-11-24T13:37:47.914Z,46.70
2017-11-24T13:40:20.117Z,46.50
2017-11-24T13:42:53.314Z,47.80
2017-11-24T13:45:25.811Z,47.80
2017-11-24T13:47:55.996Z,49.20
2017-11-24T13:50:25.333Z,50.60
2017-11-24T13:55:30.564Z,49.90
2017-11-24T13:58:01.016Z,49.20
2017-11-24T14:00:30.608Z,48.30
2017-11-24T14:03:01.006Z,47.90
2017-11-24T14:05:30.707Z,47.50
2017-11-24T14:08:00.406Z,47.30
2017-11-24T14:10:29.805Z,47.00
2017-11-24T14:12:59.007Z,46.80
2017-11-24T14:15:28.709Z,46.60
2017-11-24T14:17:59.186Z,46.50
2017-11-24T14:20:29.290Z,46.90
2017-11-24T14:22:59.541Z,47.40
2017-11-24T14:25:30.041Z,49.00
2017-11-24T14:28:01.747Z,50.40
2017-11-24T14:33:17.242Z,50.10
2017-11-24T14:35:47.644Z,49.40
2017-11-24T14:38:17.915Z,48.80
2017-11-24T14:40:48.616Z,47.70
2017-11-24T14:43:18.815Z,47.70
2017-11-24T14:45:49.226Z,47.30
2017-11-24T14:48:28.416Z,47.10
2017-11-24T14:51:01.618Z,46.90
2017-11-24T14:53:39.625Z,46.70
2017-11-24T14:56:17.214Z,46.50
2017-11-24T14:58:50.280Z,46.40
2017-11-24T15:01:20.585Z,47.80
2017-11-24T15:03:50.495Z,49.50
2017-11-24T15:06:19.150Z,50.80
2017-11-24T15:08:50.019Z,50.80
2017-11-24T15:11:19.819Z,50.10
2017-11-24T15:13:49.020Z,49.50
2017-11-24T15:16:19.342Z,49.50
2017-11-24T15:18:54.012Z,48.50
2017-11-24T15:21:26.208Z,47.50
2017-11-24T15:23:56.007Z,47.50
2017-11-24T15:26:27.406Z,47.20
2017-11-24T15:28:57.899Z,46.80
2017-11-24T15:31:28.401Z,46.70
2017-11-24T15:33:59.099Z,46.40
2017-11-24T15:36:28.803Z,46.30
2017-11-24T15:38:58.407Z,47.20
2017-11-24T15:41:30.007Z,50.50
2017-11-24T15:43:59.504Z,50.50
2017-11-24T15:46:29.413Z,51.60
2017-11-24T15:49:02.403Z,52.40
2017-11-24T15:51:36.208Z,52.90
2017-11-24T15:54:06.010Z,52.40
2017-11-24T15:56:37.402Z,50.80
2017-11-24T15:59:07.887Z,50.70
2017-11-24T16:01:38.484Z,49.60
2017-11-24T16:04:08.162Z,48.60
2017-11-24T16:06:38.136Z,48.60
2017-11-24T16:09:07.648Z,48.30
2017-11-24T16:11:37.549Z,47.80
2017-11-24T16:14:07.916Z,47.60
2017-11-24T16:16:38.620Z,47.40
2017-11-24T16:19:08.716Z,47.10
2017-11-24T16:21:39.314Z,46.50
2017-11-24T16:24:11.118Z,48.10
2017-11-24T16:26:41.125Z,49.90
2017-11-24T16:29:11.022Z,51.10
2017-11-24T16:31:41.627Z,51.20
2017-11-24T16:34:13.513Z,50.60
2017-11-24T16:36:46.525Z,49.90
2017-11-24T16:39:25.414Z,48.40
2017-11-24T16:41:56.312Z,48.30
2017-11-24T16:44:26.311Z,47.90
2017-11-24T16:46:55.526Z,47.60
2017-11-24T16:49:25.021Z,47.30
2017-11-24T16:51:56.112Z,47.10
2017-11-24T16:54:26.011Z,46.80
2017-11-24T16:56:55.611Z,46.70
2017-11-24T16:59:25.817Z,46.50
2017-11-24T17:01:58.817Z,47.40
2017-11-24T17:04:29.119Z,49.10
2017-11-24T17:06:59.516Z,50.30
2017-11-24T17:09:27.365Z,50.80
2017-11-24T17:11:56.951Z,50.10
2017-11-24T17:14:27.777Z,49.50
2017-11-24T17:16:57.579Z,48.80
2017-11-24T17:19:27.523Z,48.00
2017-11-24T17:21:57.815Z,47.70
2017-11-24T17:24:28.984Z,47.30
2017-11-24T17:26:59.682Z,47.10
2017-11-24T17:29:34.774Z,46.90
2017-11-24T17:32:06.173Z,46.60
2017-11-24T17:34:39.975Z,46.40
2017-11-24T17:37:09.874Z,46.30
2017-11-24T17:39:38.781Z,47.00
2017-11-24T17:42:09.995Z,50.00
2017-11-24T17:44:39.574Z,50.00
2017-11-24T17:47:09.280Z,50.60
2017-11-24T17:49:47.473Z,50.10
2017-11-24T17:52:26.478Z,49.40
2017-11-24T17:57:50.474Z,49.80
2017-11-24T18:00:20.372Z,49.40
2017-11-24T18:02:51.872Z,48.70
2017-11-24T18:05:25.753Z,48.20
2017-11-24T18:07:56.952Z,47.90
2017-11-24T18:10:26.864Z,47.60
2017-11-24T18:12:56.951Z,47.20
2017-11-24T18:15:26.962Z,47.00
2017-11-24T18:18:01.152Z,46.90
2017-11-24T18:25:52.645Z,46.30
2017-11-24T18:28:26.442Z,46.70
2017-11-24T18:30:56.041Z,48.20
2017-11-24T18:33:25.937Z,49.70
2017-11-24T18:35:55.570Z,50.60
2017-11-24T18:38:26.369Z,49.60
2017-11-24T18:40:57.561Z,49.00
2017-11-24T18:43:27.563Z,48.90
2017-11-24T18:45:57.962Z,48.00
2017-11-24T18:48:29.468Z,47.70
2017-11-24T18:50:59.863Z,47.30
2017-11-24T18:53:29.862Z,47.10
2017-11-24T18:56:00.065Z,46.80
2017-11-24T18:58:29.993Z,46.70
2017-11-24T19:01:00.965Z,46.50
2017-11-24T19:03:35.059Z,46.30
2017-11-24T19:06:06.333Z,46.60
2017-11-24T19:08:37.934Z,49.90
2017-11-24T19:11:08.035Z,49.80
2017-11-24T19:13:38.796Z,50.90
2017-11-24T19:16:09.575Z,52.40
2017-11-24T19:18:39.575Z,52.80
2017-11-24T19:21:09.784Z,52.60
2017-11-24T19:26:25.198Z,50.70
2017-11-24T19:28:55.992Z,49.40
2017-11-24T19:31:26.493Z,49.30
2017-11-24T19:33:56.599Z,48.80
2017-11-24T19:36:29.315Z,48.40
2017-11-24T19:39:02.402Z,48.10
2017-11-24T19:41:35.190Z,47.80
2017-11-24T19:44:07.490Z,47.60
2017-11-24T19:46:41.133Z,47.40
2017-11-24T19:49:12.209Z,47.00
2017-11-24T19:51:44.634Z,49.50
2017-11-24T19:54:18.871Z,49.50
2017-11-24T19:56:48.971Z,51.30
2017-11-24T19:59:20.369Z,51.60
2017-11-24T20:01:50.778Z,50.60
2017-11-24T20:04:21.477Z,49.80
2017-11-24T20:06:53.796Z,49.20
2017-11-24T20:09:31.282Z,48.70
2017-11-24T20:14:46.800Z,48.00
2017-11-24T20:17:19.174Z,47.60
2017-11-24T20:19:54.267Z,47.10
2017-11-24T20:22:27.073Z,47.10
2017-11-24T20:24:59.175Z,47.00
2017-11-24T20:27:39.450Z,46.70
2017-11-24T20:30:13.857Z,47.50
2017-11-24T20:32:43.341Z,49.10
2017-11-24T20:35:17.648Z,51.00
2017-11-24T20:37:47.976Z,51.00
2017-11-24T20:40:18.855Z,50.00
2017-11-24T20:42:56.344Z,49.40
2017-11-24T20:45:35.744Z,48.70
2017-11-24T20:48:04.655Z,48.70
2017-11-24T20:50:36.028Z,49.10
2017-11-24T20:53:08.597Z,49.30
2017-11-24T20:55:43.524Z,49.40
2017-11-24T20:58:13.255Z,49.20
2017-11-24T21:00:44.310Z,48.70
2017-11-24T21:03:25.346Z,48.20
2017-11-24T21:06:08.822Z,48.10
2017-11-24T21:08:50.032Z,49.40
2017-11-24T21:11:34.342Z,51.60
2017-11-24T21:19:26.140Z,49.10
2017-11-24T21:21:58.203Z,48.60
2017-11-24T21:24:29.450Z,48.00
2017-11-24T21:27:02.555Z,47.00
2017-11-24T21:29:36.779Z,47.00
2017-11-24T21:32:09.910Z,46.40
2017-11-24T21:34:42.673Z,46.30
2017-11-24T21:37:14.119Z,46.20
2017-11-24T21:39:46.222Z,46.10
2017-11-24T21:42:20.757Z,46.50
2017-11-24T21:44:51.483Z,46.10
2017-11-24T21:47:30.173Z,48.30
2017-11-24T21:50:00.133Z,49.80
2017-11-24T21:52:34.863Z,50.30
2017-11-24T21:55:05.232Z,49.60
2017-11-24T21:57:36.727Z,49.10
2017-11-24T22:00:07.866Z,48.50
2017-11-24T22:02:37.114Z,48.00
2017-11-24T22:05:09.374Z,47.70
2017-11-24T22:07:41.172Z,47.10
2017-11-24T22:10:13.247Z,46.70
2017-11-24T22:12:44.097Z,46.50
2017-11-24T22:15:20.128Z,46.40
2017-11-24T22:17:50.875Z,46.10
2017-11-24T22:20:22.772Z,45.90
2017-11-24T22:22:53.971Z,46.30
2017-11-24T22:25:25.978Z,48.30
2017-11-24T22:27:58.270Z,51.30
2017-11-24T22:30:35.251Z,51.30
2017-11-24T22:33:09.651Z,52.30
2017-11-24T22:35:42.683Z,52.70
2017-11-24T22:38:17.350Z,52.20
2017-11-24T22:40:47.443Z,51.40
2017-11-24T22:43:17.644Z,50.30
2017-11-24T22:45:47.451Z,49.50
2017-11-24T22:48:17.644Z,48.90
2017-11-24T22:50:48.447Z,48.50
2017-11-24T22:53:19.341Z,48.10
2017-11-24T22:55:50.044Z,47.70
2017-11-24T22:58:24.451Z,47.40
2017-11-24T23:00:54.660Z,47.10
2017-11-24T23:03:26.459Z,46.80
2017-11-24T23:05:56.554Z,46.60
2017-11-24T23:08:26.554Z,47.50
2017-11-24T23:10:57.755Z,49.20
2017-11-24T23:13:27.705Z,50.90
2017-11-24T23:15:57.784Z,50.80
2017-11-24T23:18:30.484Z,50.00
2017-11-24T23:21:04.508Z,48.50
2017-11-24T23:23:35.593Z,48.50
2017-11-24T23:26:05.993Z,47.90
2017-11-24T23:28:36.299Z,47.50
2017-11-24T23:33:55.294Z,46.90
2017-11-24T23:36:27.299Z,46.40
2017-11-24T23:39:00.201Z,46.30
2017-11-24T23:41:31.983Z,46.10
2017-11-24T23:44:12.290Z,46.90
2017-11-24T23:46:42.890Z,46.90
2017-11-24T23:51:51.191Z,50.20
2017-11-24T23:54:20.358Z,50.20
2017-11-24T23:56:51.305Z,49.20
2017-11-24T23:59:21.451Z,48.50
